createdAt,value
2018-11-07T00:01:46.133Z,32.97
2018-11-07T00:04:14.414Z,34.57
2018-11-07T00:06:42.563Z,36.20
2018-11-07T00:09:10.798Z,33.20
2018-11-07T00:11:39.037Z,35.40
2018-11-07T00:14:07.888Z,37.27
2018-11-07T00:16:36.873Z,35.93
2018-11-07T00:19:05.050Z,33.13
2018-11-07T00:21:33.766Z,34.47
2018-11-07T00:24:02.568Z,35.20
2018-11-07T00:26:31.201Z,36.07
2018-11-07T00:28:59.330Z,34.20
2018-11-07T00:31:27.517Z,34.57
2018-11-07T00:33:55.713Z,32.67
2018-11-07T00:36:23.948Z,34.83
2018-11-07T00:38:52.065Z,34.80
2018-11-07T00:41:20.197Z,33.47
2018-11-07T00:43:48.765Z,35.10
2018-11-07T00:46:17.019Z,33.23
2018-11-07T00:48:45.161Z,33.53
2018-11-07T00:51:13.298Z,33.70
2018-11-07T00:53:41.402Z,31.73
2018-11-07T00:56:09.589Z,36.07
2018-11-07T00:58:37.722Z,35.77
2018-11-07T01:01:05.891Z,33.97
2018-11-07T01:03:34.026Z,31.57
2018-11-07T01:06:02.430Z,34.07
2018-11-07T01:08:30.606Z,33.30
2018-11-07T01:10:58.746Z,34.07
2018-11-07T01:13:26.850Z,34.80
2018-11-07T01:15:55.024Z,34.20
2018-11-07T01:18:23.173Z,33.27
2018-11-07T01:20:51.374Z,37.67
2018-11-07T01:23:20.576Z,35.03
2018-11-07T01:25:48.709Z,33.13
2018-11-07T01:28:17.017Z,39.70
2018-11-07T01:30:45.238Z,36.50
2018-11-07T01:33:13.472Z,34.33
2018-11-07T01:35:41.818Z,34.87
2018-11-07T01:38:09.997Z,33.87
2018-11-07T01:40:38.149Z,35.00
2018-11-07T01:43:06.366Z,33.33
2018-11-07T01:45:34.513Z,34.37
2018-11-07T01:48:03.037Z,35.93
2018-11-07T01:50:31.270Z,37.33
2018-11-07T01:53:00.224Z,33.03
2018-11-07T01:55:28.585Z,35.17
2018-11-07T01:57:56.997Z,37.50
2018-11-07T02:00:25.154Z,36.47
2018-11-07T02:02:53.389Z,35.07
2018-11-07T02:05:21.695Z,35.23
2018-11-07T02:07:50.021Z,38.37
2018-11-07T02:10:18.217Z,34.87
2018-11-07T02:12:46.432Z,34.53
2018-11-07T02:15:14.547Z,34.00
2018-11-07T02:17:43.541Z,39.03
2018-11-07T02:20:12.445Z,34.77
2018-11-07T02:22:41.029Z,37.73
2018-11-07T02:25:09.212Z,36.23
2018-11-07T02:27:37.433Z,35.57
2018-11-07T02:30:07.262Z,35.33
2018-11-07T02:32:35.426Z,38.80
2018-11-07T02:35:03.737Z,34.27
2018-11-07T02:37:31.910Z,35.77
2018-11-07T02:40:00.070Z,37.07
2018-11-07T02:42:28.239Z,35.67
2018-11-07T02:44:56.355Z,35.90
2018-11-07T02:47:24.620Z,33.97
2018-11-07T02:49:52.933Z,34.37
2018-11-07T02:52:21.270Z,34.60
2018-11-07T02:54:49.410Z,35.07
2018-11-07T02:57:18.430Z,33.53
2018-11-07T02:59:46.582Z,35.67
2018-11-07T03:02:14.703Z,39.83
2018-11-07T03:04:42.825Z,39.10
2018-11-07T03:07:11.790Z,35.80
2018-11-07T03:09:40.914Z,39.87
2018-11-07T03:12:09.281Z,37.07
2018-11-07T03:14:37.488Z,38.20
2018-11-07T03:17:06.701Z,37.13
2018-11-07T03:19:34.958Z,37.17
2018-11-07T03:22:03.325Z,39.27
2018-11-07T03:24:31.637Z,38.33
2018-11-07T03:27:00.901Z,38.40
2018-11-07T03:29:29.709Z,37.50
2018-11-07T03:31:58.636Z,36.33
2018-11-07T03:34:26.819Z,39.73
2018-11-07T03:36:55.097Z,36.67
2018-11-07T03:39:24.355Z,39.57
2018-11-07T03:41:52.621Z,36.27
2018-11-07T03:44:20.810Z,39.87
2018-11-07T03:46:49.081Z,38.10
2018-11-07T03:49:17.238Z,37.80
2018-11-07T03:51:46.402Z,39.00
2018-11-07T03:54:14.954Z,38.90
2018-11-07T03:56:43.102Z,39.07
2018-11-07T03:59:11.266Z,38.57
2018-11-07T04:01:39.439Z,42.27
2018-11-07T04:04:07.621Z,39.63
2018-11-07T04:06:35.905Z,40.43
2018-11-07T04:09:07.423Z,40.00
2018-11-07T04:11:35.795Z,41.87
2018-11-07T04:14:03.969Z,41.80
2018-11-07T04:16:32.140Z,37.70
2018-11-07T04:19:00.294Z,40.10
2018-11-07T04:21:28.714Z,35.67
2018-11-07T04:24:00.431Z,40.00
2018-11-07T04:26:28.569Z,38.97
2018-11-07T04:28:56.832Z,36.30
2018-11-07T04:31:25.228Z,36.80
2018-11-07T04:33:53.842Z,37.20
2018-11-07T04:36:22.199Z,35.67
2018-11-07T04:38:50.495Z,38.17
2018-11-07T04:41:18.721Z,38.50
2018-11-07T04:43:47.686Z,37.60
2018-11-07T04:46:15.991Z,39.00
2018-11-07T04:48:45.993Z,41.47
2018-11-07T04:51:15.321Z,36.33
2018-11-07T04:53:43.485Z,37.03
2018-11-07T04:56:12.441Z,38.17
2018-11-07T04:58:40.714Z,38.70
2018-11-07T05:01:08.837Z,37.63
2018-11-07T05:03:37.526Z,38.97
2018-11-07T05:06:05.754Z,41.97
2018-11-07T05:08:33.975Z,38.57
2018-11-07T05:11:02.054Z,43.27
2018-11-07T05:13:30.190Z,40.07
2018-11-07T05:15:58.326Z,37.83
2018-11-07T05:18:26.566Z,43.50
2018-11-07T05:20:54.714Z,38.97
2018-11-07T05:23:23.111Z,43.93
2018-11-07T05:25:51.249Z,37.20
2018-11-07T05:28:19.440Z,42.43
2018-11-07T05:30:47.582Z,42.67
2018-11-07T05:33:15.702Z,47.27
2018-11-07T05:35:43.861Z,49.20
2018-11-07T05:38:12.032Z,46.20
2018-11-07T05:40:40.193Z,44.17
2018-11-07T05:43:08.398Z,48.30
2018-11-07T05:45:36.596Z,42.37
2018-11-07T05:48:04.797Z,54.83
2018-11-07T05:50:32.935Z,47.23
2018-11-07T05:53:01.154Z,48.00
2018-11-07T05:55:29.346Z,45.73
2018-11-07T05:57:57.573Z,45.57
2018-11-07T06:00:25.694Z,45.47
2018-11-07T06:02:53.921Z,53.87
2018-11-07T06:05:22.580Z,45.80
2018-11-07T06:07:51.661Z,51.27
2018-11-07T06:10:20.489Z,48.67
2018-11-07T06:12:48.633Z,42.70
2018-11-07T06:15:16.830Z,44.67
2018-11-07T06:17:45.059Z,39.73
2018-11-07T06:20:13.247Z,44.43
2018-11-07T06:22:41.464Z,45.10
2018-11-07T06:25:09.641Z,38.90
2018-11-07T06:27:37.809Z,49.57
2018-11-07T06:30:08.613Z,39.97
2018-11-07T06:32:36.793Z,44.80
2018-11-07T06:35:06.563Z,34.97
2018-11-07T06:37:35.365Z,60.57
2018-11-07T06:40:04.137Z,40.57
2018-11-07T06:42:32.505Z,30.03
2018-11-07T06:45:00.865Z,32.90
2018-11-07T06:47:28.982Z,35.53
2018-11-07T06:49:57.101Z,31.00
2018-11-07T06:52:25.353Z,30.10
2018-11-07T06:54:53.539Z,35.73
2018-11-07T06:57:21.689Z,31.97
2018-11-07T06:59:49.928Z,26.60
2018-11-07T07:02:18.898Z,26.00
2018-11-07T07:04:47.933Z,31.60
2018-11-07T07:07:16.989Z,26.80
2018-11-07T07:09:45.194Z,23.80
2018-11-07T07:12:13.430Z,27.70
2018-11-07T07:14:41.778Z,25.20
2018-11-07T07:17:10.104Z,26.83
2018-11-07T07:19:38.306Z,33.57
2018-11-07T07:22:06.430Z,23.70
2018-11-07T07:24:34.572Z,30.87
2018-11-07T07:27:02.904Z,28.67
2018-11-07T07:29:31.229Z,23.97
2018-11-07T07:32:00.257Z,24.60
2018-11-07T07:34:28.485Z,42.37
2018-11-07T07:36:56.872Z,23.73
2018-11-07T07:39:24.998Z,27.73
2018-11-07T07:41:53.134Z,32.10
2018-11-07T07:44:21.428Z,25.43
2018-11-07T07:46:49.564Z,24.10
2018-11-07T07:49:18.530Z,30.87
2018-11-07T07:51:46.865Z,24.63
2018-11-07T07:54:15.208Z,29.00
2018-11-07T07:56:43.329Z,25.10
2018-11-07T07:59:11.833Z,31.03
2018-11-07T08:01:40.177Z,25.57
2018-11-07T08:04:08.348Z,25.57
2018-11-07T08:06:37.903Z,28.83
2018-11-07T08:09:08.462Z,29.60
2018-11-07T08:11:36.681Z,31.80
2018-11-07T08:14:05.030Z,32.27
2018-11-07T08:16:33.216Z,29.63
2018-11-07T08:19:01.343Z,36.77
2018-11-07T08:21:29.585Z,30.00
2018-11-07T08:23:57.938Z,30.53
2018-11-07T08:26:26.127Z,37.23
2018-11-07T08:28:54.331Z,33.27
2018-11-07T08:31:22.669Z,31.67
2018-11-07T08:33:51.217Z,27.27
2018-11-07T08:36:19.453Z,32.97
2018-11-07T08:38:47.900Z,29.27
2018-11-07T08:41:16.088Z,31.13
2018-11-07T08:43:44.257Z,29.70
2018-11-07T08:46:12.498Z,29.20
2018-11-07T08:48:40.862Z,30.57
2018-11-07T08:51:09.193Z,34.07
2018-11-07T08:53:37.737Z,29.63
2018-11-07T08:56:06.236Z,27.93
2018-11-07T08:58:36.534Z,29.90
2018-11-07T09:01:04.815Z,31.97
2018-11-07T09:03:33.035Z,31.27
2018-11-07T09:06:01.257Z,29.23
2018-11-07T09:08:29.401Z,30.73
2018-11-07T09:10:57.557Z,27.73
2018-11-07T09:13:25.787Z,27.23
2018-11-07T09:15:53.924Z,27.00
2018-11-07T09:18:22.084Z,27.13
2018-11-07T09:20:50.338Z,26.80
2018-11-07T09:23:18.529Z,26.80
2018-11-07T09:25:46.713Z,26.33
2018-11-07T09:28:15.726Z,24.87
2018-11-07T09:30:43.969Z,25.57
2018-11-07T09:33:12.197Z,27.00
2018-11-07T09:35:40.377Z,27.53
2018-11-07T09:38:09.463Z,30.80
2018-11-07T09:40:37.701Z,26.17
2018-11-07T09:43:05.914Z,25.33
2018-11-07T09:45:34.292Z,24.50
2018-11-07T09:48:02.515Z,24.90
2018-11-07T09:50:30.682Z,25.37
2018-11-07T09:52:58.872Z,25.80
2018-11-07T09:55:27.017Z,25.20
2018-11-07T09:57:55.265Z,25.20
2018-11-07T10:00:23.392Z,24.07
2018-11-07T10:02:51.509Z,25.10
2018-11-07T10:05:20.794Z,26.70
2018-11-07T10:07:48.946Z,27.53
2018-11-07T10:10:18.553Z,31.23
2018-11-07T10:12:46.794Z,31.80
2018-11-07T10:15:15.186Z,35.17
2018-11-07T10:17:43.451Z,30.27
2018-11-07T10:20:14.301Z,27.63
2018-11-07T10:22:43.652Z,31.03
2018-11-07T10:25:12.392Z,31.60
2018-11-07T10:27:42.002Z,30.23
2018-11-07T10:30:12.330Z,29.57
2018-11-07T10:32:41.621Z,32.47
2018-11-07T10:35:10.323Z,35.80
2018-11-07T10:37:38.593Z,31.57
2018-11-07T10:40:16.426Z,34.87
2018-11-07T10:42:46.081Z,30.40
2018-11-07T10:45:14.798Z,31.30
2018-11-07T10:47:43.820Z,31.57
2018-11-07T10:50:13.085Z,27.93
2018-11-07T10:52:42.273Z,27.33
2018-11-07T10:55:11.250Z,29.40
2018-11-07T10:57:39.601Z,26.57
2018-11-07T11:00:13.747Z,27.33
2018-11-07T11:02:46.644Z,24.63
2018-11-07T11:05:15.899Z,24.57
2018-11-07T11:07:44.413Z,25.40
2018-11-07T11:10:13.545Z,23.00
2018-11-07T11:12:42.584Z,22.60
2018-11-07T11:15:10.907Z,21.50
2018-11-07T11:17:39.714Z,22.03
2018-11-07T11:20:10.128Z,20.90
2018-11-07T11:22:42.306Z,23.20
2018-11-07T11:25:10.890Z,20.00
2018-11-07T11:27:39.126Z,20.30
2018-11-07T11:30:07.948Z,20.03
2018-11-07T11:32:36.121Z,22.20
2018-11-07T11:35:04.518Z,20.40
2018-11-07T11:37:33.794Z,19.63
2018-11-07T11:40:02.038Z,21.03
2018-11-07T11:42:31.361Z,18.73
2018-11-07T11:45:00.377Z,17.30
2018-11-07T11:47:28.597Z,17.77
2018-11-07T11:49:56.931Z,18.77
2018-11-07T11:52:26.226Z,18.77
2018-11-07T11:54:54.653Z,20.37
2018-11-07T11:57:23.079Z,19.63
2018-11-07T11:59:51.974Z,18.07
2018-11-07T12:02:19.892Z,18.03
2018-11-07T12:04:48.221Z,17.10
2018-11-07T12:07:16.449Z,17.53
2018-11-07T12:09:44.671Z,18.37
2018-11-07T12:12:13.767Z,20.13
2018-11-07T12:14:41.944Z,20.47
2018-11-07T12:17:10.255Z,20.97
2018-11-07T12:19:38.449Z,17.43
2018-11-07T12:22:06.661Z,18.67
2018-11-07T12:24:34.886Z,18.30
2018-11-07T12:27:03.161Z,19.70
2018-11-07T12:29:31.305Z,17.83
2018-11-07T12:32:00.468Z,21.93
2018-11-07T12:34:28.786Z,17.90
2018-11-07T12:36:57.686Z,17.53
2018-11-07T12:39:25.913Z,16.33
2018-11-07T12:41:54.061Z,17.10
2018-11-07T12:44:24.739Z,17.73
2018-11-07T12:46:52.897Z,16.30
2018-11-07T12:49:21.189Z,16.37
2018-11-07T12:51:49.433Z,17.60
2018-11-07T12:54:17.721Z,16.97
2018-11-07T12:56:45.903Z,14.77
2018-11-07T12:59:14.081Z,14.73
2018-11-07T13:01:42.258Z,16.70
2018-11-07T13:04:11.050Z,16.67
2018-11-07T13:06:39.507Z,16.67
2018-11-07T13:09:09.142Z,15.50
2018-11-07T13:11:37.775Z,14.00
2018-11-07T13:14:06.046Z,14.07
2018-11-07T13:16:34.305Z,16.10
2018-11-07T13:19:02.591Z,12.20
2018-11-07T13:21:30.922Z,14.77
2018-11-07T13:24:00.602Z,12.63
2018-11-07T13:26:28.778Z,17.27
2018-11-07T13:28:56.961Z,14.80
2018-11-07T13:31:25.163Z,11.37
2018-11-07T13:33:55.598Z,10.17
2018-11-07T13:36:23.873Z,9.37
2018-11-07T13:38:54.069Z,12.00
2018-11-07T13:41:22.573Z,8.80
2018-11-07T13:43:50.920Z,7.77
2018-11-07T13:46:19.383Z,8.97
2018-11-07T13:48:47.800Z,12.17
2018-11-07T13:51:22.133Z,8.10
2018-11-07T13:53:50.538Z,12.30
2018-11-07T13:56:20.903Z,7.60
2018-11-07T13:58:49.239Z,9.57
2018-11-07T14:01:17.538Z,8.73
2018-11-07T14:03:48.169Z,10.47
2018-11-07T14:06:17.163Z,6.27
2018-11-07T14:08:48.477Z,10.97
2018-11-07T14:11:18.185Z,6.47
2018-11-07T14:13:46.392Z,7.90
2018-11-07T14:16:14.678Z,9.40
2018-11-07T14:18:44.394Z,6.57
2018-11-07T14:21:12.644Z,9.53
2018-11-07T14:23:40.810Z,8.13
2018-11-07T14:26:09.082Z,6.37
2018-11-07T14:28:37.304Z,5.67
2018-11-07T14:31:07.189Z,5.93
2018-11-07T14:33:35.528Z,8.83
2018-11-07T14:36:03.730Z,6.03
2018-11-07T14:38:32.228Z,6.97
2018-11-07T14:41:00.490Z,9.80
2018-11-07T14:43:29.431Z,9.97
2018-11-07T14:45:59.477Z,8.27
2018-11-07T14:48:31.970Z,6.07
2018-11-07T14:51:00.858Z,7.63
2018-11-07T14:53:29.888Z,9.40
2018-11-07T14:55:58.075Z,8.87
2018-11-07T14:58:26.277Z,7.53
2018-11-07T15:00:54.513Z,8.10
2018-11-07T15:03:22.676Z,10.07
2018-11-07T15:05:50.898Z,7.40
2018-11-07T15:08:20.302Z,8.10
2018-11-07T15:10:49.676Z,9.83
2018-11-07T15:13:19.533Z,10.00
2018-11-07T15:15:47.902Z,7.90
2018-11-07T15:18:16.128Z,8.97
2018-11-07T15:20:51.527Z,8.73
2018-11-07T15:23:20.363Z,8.40
2018-11-07T15:25:49.062Z,7.37
2018-11-07T15:28:19.466Z,8.17
2018-11-07T15:30:47.648Z,7.23
2018-11-07T15:33:16.239Z,9.17
2018-11-07T15:35:44.406Z,11.03
2018-11-07T15:38:12.738Z,8.33
2018-11-07T15:40:41.571Z,9.07
2018-11-07T15:43:11.084Z,8.17
2018-11-07T15:45:39.245Z,7.77
2018-11-07T15:48:08.465Z,9.00
2018-11-07T15:50:44.553Z,14.97
2018-11-07T15:53:12.891Z,9.70
2018-11-07T15:55:41.324Z,6.63
2018-11-07T15:58:09.710Z,8.87
2018-11-07T16:00:37.933Z,7.77
2018-11-07T16:03:07.583Z,9.87
2018-11-07T16:05:35.936Z,9.50
2018-11-07T16:08:04.549Z,8.47
2018-11-07T16:10:42.673Z,9.50
2018-11-07T16:13:12.997Z,8.70
2018-11-07T16:15:42.365Z,7.80
2018-11-07T16:18:10.819Z,9.10
2018-11-07T16:20:42.055Z,11.23
2018-11-07T16:23:10.343Z,8.90
2018-11-07T16:25:44.833Z,11.53
2018-11-07T16:28:19.849Z,8.70
2018-11-07T16:30:48.228Z,10.07
2018-11-07T16:33:16.655Z,10.83
2018-11-07T16:35:45.082Z,11.27
2018-11-07T16:38:16.994Z,8.57
2018-11-07T16:40:45.649Z,10.30
2018-11-07T16:43:13.808Z,9.83
2018-11-07T16:45:43.329Z,9.43
2018-11-07T16:48:11.593Z,9.27
2018-11-07T16:50:39.884Z,12.20
2018-11-07T16:53:08.080Z,10.33
2018-11-07T16:55:37.945Z,9.50
2018-11-07T16:58:06.346Z,10.40
2018-11-07T17:00:34.716Z,9.77
2018-11-07T17:03:03.805Z,12.27
2018-11-07T17:05:33.007Z,10.17
2018-11-07T17:08:01.443Z,10.80
2018-11-07T17:10:29.725Z,10.87
2018-11-07T17:12:58.156Z,10.30
2018-11-07T17:15:27.735Z,12.33
2018-11-07T17:17:59.213Z,10.33
2018-11-07T17:20:27.500Z,10.27
2018-11-07T17:22:55.854Z,10.33
2018-11-07T17:25:24.089Z,9.40
2018-11-07T17:27:52.385Z,9.93
2018-11-07T17:30:20.758Z,11.00
2018-11-07T17:32:49.390Z,10.90
2018-11-07T17:35:18.523Z,11.47
2018-11-07T17:37:47.506Z,12.60
2018-11-07T17:40:18.049Z,10.90
2018-11-07T17:42:47.030Z,10.57
2018-11-07T17:45:16.867Z,14.20
2018-11-07T17:47:47.566Z,11.57
2018-11-07T17:50:16.623Z,14.30
2018-11-07T17:52:45.765Z,15.87
2018-11-07T17:55:16.118Z,13.50
2018-11-07T17:57:45.039Z,13.70
2018-11-07T18:00:16.577Z,14.13
2018-11-07T18:02:44.977Z,16.60
2018-11-07T18:05:13.345Z,14.90
2018-11-07T18:07:41.871Z,11.47
2018-11-07T18:10:12.259Z,13.27
2018-11-07T18:12:41.018Z,12.80
2018-11-07T18:15:10.123Z,14.77
2018-11-07T18:17:38.451Z,11.40
2018-11-07T18:20:07.838Z,14.00
2018-11-07T18:22:36.037Z,10.97
2018-11-07T18:25:04.442Z,11.03
2018-11-07T18:27:33.188Z,12.87
2018-11-07T18:30:01.406Z,12.50
2018-11-07T18:32:29.776Z,12.97
2018-11-07T18:34:58.102Z,14.00
2018-11-07T18:37:26.217Z,11.33
2018-11-07T18:39:55.017Z,14.20
2018-11-07T18:42:24.433Z,14.60
2018-11-07T18:44:52.703Z,14.73
2018-11-07T18:47:20.920Z,13.40
2018-11-07T18:49:49.698Z,13.67
2018-11-07T18:52:17.901Z,12.57
2018-11-07T18:54:46.118Z,12.87
2018-11-07T18:57:20.271Z,11.43
2018-11-07T18:59:49.729Z,11.97
2018-11-07T19:02:22.231Z,10.70
2018-11-07T19:04:55.616Z,12.17
2018-11-07T19:07:26.010Z,11.27
2018-11-07T19:10:02.935Z,10.57
2018-11-07T19:12:31.169Z,11.80
2018-11-07T19:14:59.361Z,11.27
2018-11-07T19:17:27.577Z,11.23
2018-11-07T19:19:57.245Z,14.67
2018-11-07T19:22:25.522Z,11.27
2018-11-07T19:24:53.912Z,11.67
2018-11-07T19:27:22.183Z,13.07
2018-11-07T19:29:50.355Z,13.57
2018-11-07T19:32:18.654Z,12.67
2018-11-07T19:34:47.054Z,11.87
2018-11-07T19:37:15.407Z,13.43
2018-11-07T19:39:44.005Z,12.30
2018-11-07T19:42:12.205Z,13.30
2018-11-07T19:44:40.771Z,12.40
2018-11-07T19:47:08.954Z,13.10
2018-11-07T19:49:37.269Z,13.90
2018-11-07T19:52:05.612Z,12.83
2018-11-07T19:54:34.102Z,12.50
2018-11-07T19:57:03.503Z,11.60
2018-11-07T19:59:32.327Z,12.57
2018-11-07T20:02:00.769Z,17.00
2018-11-07T20:04:32.290Z,13.20
2018-11-07T20:07:01.134Z,13.00
2018-11-07T20:09:31.665Z,11.63
2018-11-07T20:12:01.965Z,11.63
2018-11-07T20:14:31.499Z,15.73
2018-11-07T20:16:59.938Z,20.23
2018-11-07T20:19:29.264Z,14.43
2018-11-07T20:22:00.730Z,12.17
2018-11-07T20:24:33.211Z,14.37
2018-11-07T20:27:07.487Z,13.07
2018-11-07T20:29:38.118Z,13.47
2018-11-07T20:32:13.422Z,14.23
2018-11-07T20:34:41.697Z,15.77
2018-11-07T20:37:10.801Z,12.57
2018-11-07T20:39:39.874Z,13.47
2018-11-07T20:42:08.212Z,14.50
2018-11-07T20:44:36.670Z,12.77
2018-11-07T20:47:04.971Z,18.60
2018-11-07T20:49:33.474Z,14.17
2018-11-07T20:52:01.705Z,14.10
2018-11-07T20:54:30.332Z,14.17
2018-11-07T20:56:58.475Z,12.60
2018-11-07T20:59:27.144Z,12.23
2018-11-07T21:01:56.686Z,15.33
2018-11-07T21:04:25.017Z,13.20
2018-11-07T21:06:53.443Z,11.77
2018-11-07T21:09:21.838Z,12.00
2018-11-07T21:11:50.169Z,13.60
2018-11-07T21:14:18.638Z,14.53
2018-11-07T21:16:47.093Z,12.60
2018-11-07T21:19:15.407Z,14.70
2018-11-07T21:21:44.613Z,12.07
2018-11-07T21:24:13.066Z,11.73
2018-11-07T21:26:41.446Z,11.47
2018-11-07T21:29:12.709Z,11.70
2018-11-07T21:31:41.066Z,13.93
2018-11-07T21:34:09.445Z,16.03
2018-11-07T21:36:37.961Z,12.67
2018-11-07T21:39:09.451Z,11.80
2018-11-07T21:41:37.811Z,11.50
2018-11-07T21:44:06.452Z,11.87
2018-11-07T21:46:35.621Z,12.90
2018-11-07T21:49:03.745Z,12.00
2018-11-07T21:51:32.454Z,11.67
2018-11-07T21:54:00.749Z,11.93
2018-11-07T21:56:29.198Z,12.90
2018-11-07T21:58:57.577Z,12.03
2018-11-07T22:01:25.858Z,12.00
2018-11-07T22:03:54.628Z,11.73
2018-11-07T22:06:22.804Z,11.77
2018-11-07T22:08:51.033Z,11.70
2018-11-07T22:11:19.453Z,13.97
2018-11-07T22:13:47.589Z,13.47
2018-11-07T22:16:15.876Z,12.90
2018-11-07T22:18:44.258Z,10.70
2018-11-07T22:21:12.381Z,12.10
2018-11-07T22:23:40.530Z,13.97
2018-11-07T22:26:08.697Z,11.33
2018-11-07T22:28:36.835Z,12.77
2018-11-07T22:31:05.361Z,13.30
2018-11-07T22:33:33.531Z,11.77
2018-11-07T22:36:01.717Z,11.33
2018-11-07T22:38:29.959Z,11.13
2018-11-07T22:40:58.114Z,13.93
2018-11-07T22:43:26.258Z,12.07
2018-11-07T22:45:55.337Z,11.90
2018-11-07T22:48:23.479Z,11.43
2018-11-07T22:50:51.630Z,12.33
2018-11-07T22:53:20.272Z,12.67
2018-11-07T22:55:49.678Z,13.17
2018-11-07T22:58:17.842Z,11.53
2018-11-07T23:00:51.442Z,11.53
2018-11-07T23:03:19.722Z,10.53
2018-11-07T23:05:47.894Z,13.50
2018-11-07T23:08:16.273Z,11.47
2018-11-07T23:10:45.390Z,11.40
2018-11-07T23:13:13.642Z,12.20
2018-11-07T23:15:47.875Z,18.77
2018-11-07T23:18:18.242Z,11.57
2018-11-07T23:20:46.734Z,12.03
2018-11-07T23:23:15.218Z,17.20
2018-11-07T23:25:44.605Z,13.13
2018-11-07T23:28:13.447Z,11.50
2018-11-07T23:30:42.657Z,10.67
2018-11-07T23:35:45.541Z,15.37
2018-11-07T23:38:13.714Z,10.73
2018-11-07T23:40:41.994Z,13.90
2018-11-07T23:43:10.892Z,11.23
2018-11-07T23:45:39.049Z,14.83
2018-11-07T23:48:07.741Z,10.63
2018-11-07T23:50:36.706Z,12.70
2018-11-07T23:53:05.722Z,11.50
2018-11-07T23:55:33.869Z,12.00
2018-11-07T23:58:01.969Z,11.73
